Time;durP1;ratioP1;P1;durP2;ratioP2;P2;SDS_P1;SDS_P2;PMS_P1;PMS_P2;Temp;Humidity;BMP_temperature;BMP_pressure;BME280_temperature;BME280_humidity;BME280_pressure;Samples;Min_cycle;Max_cycle;Signal;HPM_P1;HPM_P2
2022/09/26 00:00:54;;;;;;;16.93;11.43;;;;;;;16.56;87.44;98432.43;4279261;82;28470;-87
2022/09/26 00:06:57;;;;;;;18.07;12.13;;;;;;;16.78;84.36;98431.67;4307803;82;28483;-85
2022/09/26 00:12:59;;;;;;;17.02;11.22;;;;;;;16.75;82.56;98430.33;4319156;80;28503;-85
2022/09/26 00:19:01;;;;;;;19.85;12.93;;;;;;;16.83;81.08;98423.48;4328416;81;28541;-85
2022/09/26 00:25:04;;;;;;;23.38;14.63;;;;;;;16.96;80.57;98419.25;4363556;80;28603;-85
2022/09/26 00:31:13;;;;;;;20.25;11.88;;;;;;;16.99;84.90;98414.06;4373873;80;28553;-84
2022/09/26 00:37:15;;;;;;;16.55;11.85;;;;;;;16.83;81.83;98398.49;4369368;80;28502;-84
2022/09/26 00:43:41;;;;;;;19.17;12.23;;;;;;;16.81;80.28;98395.27;4332203;81;28500;-84
2022/09/26 00:49:45;;;;;;;15.65;10.88;;;;;;;16.78;81.62;98389.59;4355619;80;28554;-85
2022/09/26 00:56:01;;;;;;;18.95;11.83;;;;;;;16.80;79.09;98387.39;4367300;80;28569;-85
2022/09/26 01:02:03;;;;;;;;;;;;;;;16.56;81.72;98380.05;4383780;79;28473;-85
2022/09/26 01:08:05;;;;;;;18.70;12.18;;;;;;;16.51;82.45;98376.84;4349319;79;20646;-86
2022/09/26 01:14:09;;;;;;;17.70;12.33;;;;;;;16.73;81.78;98380.95;4326027;79;28492;-87
2022/09/26 01:20:29;;;;;;;17.73;12.23;;;;;;;16.90;80.41;98375.06;4406697;79;28505;-87
2022/09/26 01:26:44;;;;;;;17.98;12.68;;;;;;;16.88;80.49;98372.41;4330226;80;28521;-85
2022/09/26 01:33:17;;;;;;;18.30;13.10;;;;;;;16.93;80.52;98363.64;4357283;80;34523;-85
2022/09/26 01:39:55;;;;;;;21.73;13.93;;;;;;;16.67;82.64;98363.92;4406491;79;28570;-84
2022/09/26 01:46:18;;;;;;;19.37;12.93;;;;;;;16.53;85.30;98356.22;4406608;80;28481;-84
2022/09/26 01:52:37;;;;;;;20.90;13.72;;;;;;;16.25;86.17;98347.27;4426799;79;28444;-85
2022/09/26 01:58:44;;;;;;;24.55;14.38;;;;;;;16.06;90.02;98352.56;4376034;80;28554;-84
2022/09/26 02:04:50;;;;;;;18.25;12.80;;;;;;;16.44;89.04;98344.63;4363729;80;28597;-84
2022/09/26 02:11:02;;;;;;;19.97;13.73;;;;;;;16.35;85.16;98334.13;4394059;80;34775;-83
2022/09/26 02:17:14;;;;;;;22.80;14.43;;;;;;;16.12;90.06;98332.98;4371679;80;28585;-84
2022/09/26 02:23:16;;;;;;;20.43;13.70;;;;;;;16.04;87.98;98327.64;4391842;79;28502;-85
2022/09/26 02:29:19;;;;;;;20.30;13.48;;;;;;;16.07;89.33;98323.00;4388907;80;28465;-85
2022/09/26 02:42:10;;;;;;;21.93;13.45;;;;;;;16.51;84.46;98329.92;4331230;79;28509;-84
2022/09/26 02:48:32;;;;;;;21.30;14.40;;;;;;;16.63;83.23;98324.90;4335953;80;28497;-84
2022/09/26 02:55:31;;;;;;;20.95;14.15;;;;;;;16.71;84.29;98318.84;4358684;79;28484;-84
2022/09/26 03:02:10;;;;;;;23.60;15.10;;;;;;;16.84;84.08;98311.88;4360249;79;28472;-83
2022/09/26 03:08:36;;;;;;;20.65;14.33;;;;;;;16.88;86.43;98303.17;4379073;79;28569;-83
2022/09/26 03:14:41;;;;;;;21.30;14.23;;;;;;;17.06;85.64;98284.75;4355037;79;28542;-83
2022/09/26 03:20:43;;;;;;;21.27;15.40;;;;;;;16.99;88.54;98276.14;4412658;79;28520;-85
2022/09/26 03:26:46;;;;;;;24.57;15.23;;;;;;;17.33;86.60;98262.09;4364728;80;28513;-89
2022/09/26 03:32:48;;;;;;;22.98;14.40;;;;;;;17.29;86.34;98259.19;4373795;79;28600;-87
2022/09/26 03:38:50;;;;;;;21.60;14.63;;;;;;;17.24;85.58;98251.10;4317840;80;28525;-86
2022/09/26 03:45:07;;;;;;;22.73;15.35;;;;;;;17.03;87.09;98246.53;4278978;81;28516;-86
2022/09/26 03:51:13;;;;;;;22.25;14.50;;;;;;;16.76;88.66;98242.51;4346343;81;28513;-86
2022/09/26 03:57:15;;;;;;;23.27;15.15;;;;;;;16.66;90.39;98244.79;4319348;81;28548;-86
2022/09/26 04:03:19;;;;;;;22.02;14.58;;;;;;;16.74;90.40;98238.72;4352142;80;28569;-87
2022/09/26 04:09:22;;;;;;;19.62;13.98;;;;;;;17.00;90.19;98259.57;4365283;80;28519;-88
2022/09/26 04:15:25;;;;;;;21.95;14.10;;;;;;;16.97;86.13;98258.78;4299112;81;28576;-85
2022/09/26 04:21:28;;;;;;;21.87;14.18;;;;;;;17.04;85.15;98250.86;4274527;81;28581;-83
2022/09/26 04:27:30;;;;;;;23.10;14.70;;;;;;;17.08;85.31;98249.98;4309801;82;28519;-83
2022/09/26 04:33:32;;;;;;;22.25;13.70;;;;;;;17.10;86.08;98242.34;4297093;81;28613;-75
2022/09/26 04:39:38;;;;;;;21.87;14.00;;;;;;;17.06;87.26;98241.30;4303325;82;28530;-74
2022/09/26 04:45:44;;;;;;;20.55;14.18;;;;;;;17.17;88.33;98239.25;4324186;81;28540;-75
2022/09/26 04:51:47;;;;;;;22.85;14.43;;;;;;;17.32;86.98;98236.04;4329286;81;28607;-82
2022/09/26 04:57:49;;;;;;;24.45;14.75;;;;;;;17.33;87.74;98219.99;4290579;81;28554;-80
2022/09/26 05:03:50;;;;;;;28.98;15.05;;;;;;;17.46;87.23;98215.17;4306800;81;28526;-77
2022/09/26 05:09:52;;;;;;;21.42;14.73;;;;;;;17.50;87.15;98216.75;4319937;81;28484;-81
2022/09/26 05:15:58;;;;;;;20.72;14.15;;;;;;;17.63;86.42;98215.16;4256759;82;28522;-80
2022/09/26 05:22:01;;;;;;;24.10;15.72;;;;;;;17.89;84.71;98210.64;4330106;81;28474;-82
2022/09/26 05:28:03;;;;;;;23.60;14.28;;;;;;;17.95;84.87;98198.02;4330567;82;28525;-84
2022/09/26 05:34:12;;;;;;;22.22;14.87;;;;;;;18.02;84.79;98194.10;4306547;82;28532;-81
2022/09/26 05:46:37;;;;;;;21.73;14.95;;;;;;;18.23;84.51;98204.86;4294005;82;28506;-85
2022/09/26 05:52:39;;;;;;;24.92;15.78;;;;;;;18.37;83.70;98206.77;4316903;82;28573;-84
2022/09/26 05:58:41;;;;;;;24.50;14.63;;;;;;;18.48;83.66;98201.36;4284249;82;28581;-84
2022/09/26 06:04:51;;;;;;;25.72;15.83;;;;;;;18.09;84.26;98205.39;4302204;82;28564;-84
2022/09/26 06:11:12;;;;;;;26.68;16.60;;;;;;;18.16;89.63;98205.81;4296795;82;28533;-84
2022/09/26 06:17:14;;;;;;;23.05;15.80;;;;;;;18.49;86.01;98203.55;4327384;80;28614;-83
2022/09/26 06:23:18;;;;;;;22.60;15.53;;;;;;;18.71;84.58;98199.27;4338064;80;28561;-84
2022/09/26 06:29:20;;;;;;;26.00;16.32;;;;;;;19.03;81.31;98202.95;4386048;79;28547;-84
2022/09/26 06:35:25;;;;;;;32.23;19.50;;;;;;;19.17;79.51;98196.88;4365299;79;28565;-84
2022/09/26 06:41:46;;;;;;;32.45;19.20;;;;;;;18.96;82.64;98189.73;4365930;80;28517;-85
2022/09/26 06:48:05;;;;;;;36.45;19.57;;;;;;;19.32;80.09;98187.53;4359123;80;28658;-84
2022/09/26 06:54:26;;;;;;;43.80;21.17;;;;;;;19.50;79.80;98188.45;4335242;81;28611;-85
2022/09/26 07:00:34;;;;;;;51.65;22.75;;;;;;;19.33;80.59;98185.05;4378021;79;28513;-84
2022/09/26 07:06:42;;;;;;;50.70;22.73;;;;;;;19.55;80.62;98190.23;4360352;80;28502;-84
2022/09/26 07:13:21;;;;;;;34.78;21.82;;;;;;;19.78;80.07;98191.02;4332666;80;28550;-85
2022/09/26 07:19:22;;;;;;;37.70;22.40;;;;;;;19.60;80.41;98183.30;4310792;81;28625;-84
2022/09/26 07:25:32;;;;;;;44.80;27.27;;;;;;;20.02;77.70;98180.89;4377150;79;28543;-84
2022/09/26 07:31:35;;;;;;;38.25;24.40;;;;;;;20.66;76.61;98180.97;4337897;80;28504;-84
2022/09/26 07:37:40;;;;;;;39.30;25.35;;;;;;;20.79;75.03;98184.69;4371010;79;28546;-83
2022/09/26 07:43:42;;;;;;;37.93;25.57;;;;;;;20.98;74.45;98183.03;4335012;81;28518;-84
2022/09/26 07:56:16;;;;;;;38.63;21.55;;;;;;;21.03;74.33;98176.59;4350704;79;28535;-84
2022/09/26 08:02:32;;;;;;;34.53;22.00;;;;;;;21.08;73.49;98173.69;4263454;80;28593;-84
2022/09/26 08:08:31;;;;;;;32.03;20.43;;;;;;;21.10;73.87;98175.56;4334987;81;28561;-84
2022/09/26 08:14:56;;;;;;;37.90;22.17;;;;;;;21.41;72.76;98173.74;4358128;80;28570;-84
2022/09/26 08:21:09;;;;;;;40.30;23.67;;;;;;;21.20;73.45;98174.99;4314491;81;28551;-83
2022/09/26 08:27:10;;;;;;;40.78;23.12;;;;;;;21.15;74.84;98167.77;4336188;81;28522;-84
2022/09/26 08:33:13;;;;;;;37.40;22.37;;;;;;;20.98;75.10;98174.83;4323948;81;28543;-85
2022/09/26 08:39:15;;;;;;;41.23;22.73;;;;;;;20.74;76.17;98179.36;4352059;80;28536;-84
2022/09/26 08:52:34;;;;;;;36.83;21.52;;;;;;;20.66;78.83;98184.25;4326972;81;28499;-84
2022/09/26 08:58:47;;;;;;;34.70;20.88;;;;;;;20.84;77.67;98182.39;4313736;80;28535;-84
2022/09/26 09:05:03;;;;;;;37.93;20.62;;;;;;;20.71;78.19;98184.11;4339342;80;28511;-84
2022/09/26 09:11:50;;;;;;;37.60;19.05;;;;;;;20.42;82.33;98187.68;4358453;80;28492;-84
2022/09/26 09:18:19;;;;;;;29.18;19.15;;;;;;;20.45;83.48;98193.04;4339313;80;28538;-83
2022/09/26 09:24:58;;;;;;;30.90;18.10;;;;;;;20.67;81.45;98189.40;4345302;80;28482;-83
2022/09/26 09:31:05;;;;;;;31.40;19.37;;;;;;;20.61;85.58;98191.48;4356205;81;28554;-83
2022/09/26 09:37:36;;;;;;;31.70;19.77;;;;;;;20.62;86.03;98187.63;4105559;85;28499;-83
2022/09/26 09:43:54;;;;;;;32.83;19.62;;;;;;;20.83;84.63;98185.67;4332636;80;28480;-83
2022/09/26 09:49:58;;;;;;;29.60;19.27;;;;;;;20.65;86.61;98188.92;4359205;80;28475;-84
2022/09/26 09:56:37;;;;;;;34.45;20.82;;;;;;;20.73;86.45;98188.13;4389335;80;28487;-84
2022/09/26 10:02:47;;;;;;;34.58;20.02;;;;;;;21.16;83.50;98185.77;4314497;80;28517;-84
2022/09/26 10:08:51;;;;;;;33.50;18.98;;;;;;;21.17;82.48;98182.69;4346281;80;28519;-83
2022/09/26 10:15:25;;;;;;;31.57;20.12;;;;;;;21.29;81.93;98175.76;4233899;81;28531;-84
2022/09/26 10:21:44;;;;;;;32.05;20.05;;;;;;;21.60;81.45;98172.00;4326500;81;28530;-84
2022/09/26 10:27:50;;;;;;;27.32;18.95;;;;;;;22.14;77.93;98166.63;4298769;81;28516;-84
2022/09/26 10:34:02;;;;;;;27.95;18.07;;;;;;;22.14;76.72;98170.14;4317326;81;28514;-84
2022/09/26 10:46:25;;;;;;;24.98;17.55;;;;;;;22.77;73.43;98161.83;4268538;81;28518;-84
2022/09/26 10:52:49;;;;;;;25.20;16.80;;;;;;;22.92;72.29;98145.91;4312591;81;28600;-84
2022/09/26 10:58:59;;;;;;;24.92;16.90;;;;;;;23.57;70.36;98139.19;4269082;81;28482;-84
2022/09/26 11:11:32;;;;;;;24.32;16.80;;;;;;;23.96;68.20;98142.44;4286842;83;28483;-87
2022/09/26 11:17:52;;;;;;;22.75;15.98;;;;;;;24.34;66.94;98132.26;4299143;82;28543;-88
2022/09/26 11:24:41;;;;;;;22.17;14.87;;;;;;;24.53;66.67;98129.48;4274053;83;28544;-89
2022/09/26 11:30:49;;;;;;;19.42;13.80;;;;;;;24.86;66.14;98130.66;4282738;82;28511;-88
2022/09/26 11:37:29;;;;;;;13.40;10.18;;;;;;;25.05;64.49;98116.84;4331177;81;28517;-81
2022/09/26 11:43:51;;;;;;;13.65;9.85;;;;;;;25.48;63.08;98097.94;4371228;80;28562;-81
2022/09/26 11:50:24;;;;;;;11.50;9.53;;;;;;;25.70;61.91;98090.25;4350639;81;28585;-82
2022/09/26 11:56:58;;;;;;;9.33;8.13;;;;;;;26.08;59.95;98075.59;4360904;81;28549;-81
2022/09/26 12:03:23;;;;;;;9.75;8.28;;;;;;;26.23;59.88;98078.89;4382793;79;28486;-81
2022/09/26 12:09:57;;;;;;;9.38;7.35;;;;;;;26.23;58.14;98076.14;4363695;79;28572;-81
2022/09/26 12:16:17;;;;;;;9.38;8.00;;;;;;;26.00;57.94;98078.17;4298521;81;28585;-81
2022/09/26 12:22:58;;;;;;;11.63;8.18;;;;;;;25.57;59.26;98078.52;4262884;81;28555;-81
2022/09/26 12:29:11;;;;;;;8.40;6.70;;;;;;;26.03;60.00;98074.72;4307975;81;28471;-81
2022/09/26 12:35:51;;;;;;;8.03;6.50;;;;;;;25.84;58.96;98072.69;4278035;80;28496;-80
2022/09/26 12:42:21;;;;;;;8.20;6.85;;;;;;;25.34;58.77;98077.73;4274851;80;28621;-80
2022/09/26 12:48:38;;;;;;;8.25;6.83;;;;;;;25.94;58.05;98071.36;4376100;79;28489;-81
2022/09/26 12:54:59;;;;;;;8.80;6.72;;;;;;;25.86;56.80;98068.99;4366100;79;28585;-80
2022/09/26 13:01:16;;;;;;;7.37;6.22;;;;;;;25.36;57.99;98067.17;4395815;79;28537;-82
2022/09/26 13:07:50;;;;;;;10.30;7.20;;;;;;;24.95;58.75;98071.98;4346690;80;28535;-82
2022/09/26 13:14:25;;;;;;;8.00;6.50;;;;;;;25.15;58.02;98074.30;4320193;80;28515;-81
2022/09/26 13:20:43;;;;;;;7.53;6.17;;;;;;;25.20;58.21;98072.66;4443745;78;28548;-82
2022/09/26 13:26:51;;;;;;;7.22;5.70;;;;;;;25.05;58.49;98068.73;4445126;79;28525;-81
2022/09/26 13:33:22;;;;;;;9.18;6.45;;;;;;;24.69;59.24;98059.48;4374780;80;28536;-82
2022/09/26 13:39:41;;;;;;;8.28;5.58;;;;;;;24.71;58.75;98055.81;4394120;80;28544;-80
2022/09/26 13:45:59;;;;;;;7.37;5.67;;;;;;;23.45;61.07;98050.81;4398265;81;28555;-81
2022/09/26 13:52:18;;;;;;;9.60;6.12;;;;;;;24.03;59.87;98047.16;4378058;80;28545;-81
2022/09/26 13:58:25;;;;;;;7.00;5.37;;;;;;;23.15;61.72;98042.17;4374890;80;28514;-82
2022/09/26 14:04:34;;;;;;;6.75;5.42;;;;;;;23.29;61.10;98031.48;4386376;81;28553;-81
2022/09/26 14:10:42;;;;;;;5.60;4.72;;;;;;;22.95;61.15;98031.48;4361882;80;28508;-82
2022/09/26 14:16:56;;;;;;;5.80;4.30;;;;;;;23.30;61.17;98021.55;4313199;81;28551;-81
2022/09/26 14:23:01;;;;;;;6.17;4.70;;;;;;;23.22;60.70;98021.05;4383243;80;28480;-81
2022/09/26 14:29:31;;;;;;;7.62;5.28;;;;;;;23.21;60.49;98018.08;4316381;80;28559;-82
2022/09/26 14:35:37;;;;;;;7.12;5.33;;;;;;;23.03;61.34;98011.41;4369583;79;28533;-82
2022/09/26 14:41:42;;;;;;;5.72;4.85;;;;;;;22.98;61.69;98017.13;4351846;79;28534;-82
2022/09/26 14:47:59;;;;;;;8.30;5.50;;;;;;;22.42;63.17;98009.48;4367288;79;28503;-81
2022/09/26 14:54:07;;;;;;;7.05;4.87;;;;;;;23.01;62.50;98009.59;4344922;81;28479;-80
2022/09/26 15:00:39;;;;;;;5.37;4.58;;;;;;;23.25;62.48;98011.58;4354185;80;28562;-81
2022/09/26 15:07:03;;;;;;;6.42;4.90;;;;;;;23.22;65.61;98001.30;4309950;81;28492;-81
2022/09/26 15:13:19;;;;;;;6.33;5.08;;;;;;;23.51;64.19;98003.61;4404200;80;28596;-81
2022/09/26 15:19:34;;;;;;;6.43;4.90;;;;;;;23.57;62.56;98008.30;4384707;80;28757;-81
2022/09/26 15:25:37;;;;;;;7.92;5.10;;;;;;;23.28;66.00;98009.32;4407470;80;28631;-81
2022/09/26 15:31:45;;;;;;;6.42;4.70;;;;;;;23.03;66.62;97990.08;4326197;80;28553;-81
2022/09/26 15:37:50;;;;;;;7.50;5.03;;;;;;;22.66;70.16;97994.89;4383799;78;28573;-82
2022/09/26 15:43:56;;;;;;;6.28;5.15;;;;;;;22.50;71.01;97989.25;4407952;77;28571;-80
2022/09/26 15:50:29;;;;;;;7.53;4.53;;;;;;;22.24;72.63;97994.33;4373012;79;28586;-82
2022/09/26 15:56:42;;;;;;;6.90;4.50;;;;;;;21.99;74.58;97999.69;4389050;80;29065;-79
2022/09/26 16:02:45;;;;;;;7.72;4.92;;;;;;;21.66;77.18;98005.23;4407026;78;28512;-83
2022/09/26 16:08:54;;;;;;;7.12;4.70;;;;;;;21.51;78.25;97994.30;4357756;80;28589;-82
2022/09/26 16:15:06;;;;;;;8.95;4.72;;;;;;;21.38;78.92;97987.13;4370954;80;28503;-81
2022/09/26 16:21:25;;;;;;;5.58;4.30;;;;;;;21.09;80.36;97982.67;4353663;80;28567;-82
2022/09/26 16:27:32;;;;;;;5.20;4.37;;;;;;;20.72;81.36;97976.79;4354020;80;28679;-82
2022/09/26 16:33:38;;;;;;;7.85;5.50;;;;;;;20.28;85.71;97985.02;4384930;79;28535;-81
2022/09/26 16:39:40;;;;;;;5.90;4.70;;;;;;;20.19;86.35;97991.86;4356136;80;28531;-82
2022/09/26 16:45:55;;;;;;;6.67;5.00;;;;;;;20.48;84.65;97997.23;4343252;80;28496;-81
2022/09/26 16:52:25;;;;;;;7.33;4.47;;;;;;;20.39;83.85;97990.39;4371510;80;28511;-82
2022/09/26 16:58:29;;;;;;;8.30;4.65;;;;;;;20.36;83.22;97986.13;4412959;78;28555;-82
2022/09/26 17:04:33;;;;;;;5.83;4.15;;;;;;;20.42;83.43;97988.41;4412029;78;28523;-82
2022/09/26 17:10:37;;;;;;;6.85;4.15;;;;;;;20.40;83.82;97985.75;4320379;80;28588;-80
2022/09/26 17:16:42;;;;;;;6.83;4.47;;;;;;;20.38;85.15;97980.60;4344609;80;28570;-82
2022/09/26 17:22:43;;;;;;;8.28;5.12;;;;;;;20.39;85.16;97977.32;4358624;80;28552;-81
2022/09/26 17:28:48;;;;;;;9.10;5.83;;;;;;;20.08;91.03;97975.56;4356386;80;28566;-80
2022/09/26 17:34:54;;;;;;;12.23;8.90;;;;;;;20.03;93.35;97977.89;4355717;80;28539;-83
2022/09/26 17:40:59;;;;;;;9.60;6.97;;;;;;;20.13;92.58;97976.20;4369784;79;29235;-83
2022/09/26 17:47:02;;;;;;;8.03;6.12;;;;;;;20.10;94.61;97985.59;4412671;79;28452;-80
2022/09/26 17:53:08;;;;;;;7.72;5.92;;;;;;;20.06;93.62;97984.06;4385018;79;28593;-79
2022/09/26 17:59:24;;;;;;;8.88;5.97;;;;;;;19.72;96.24;97991.05;4374643;79;28531;-80
2022/09/26 18:05:29;;;;;;;17.77;11.95;;;;;;;20.16;92.40;97987.05;4319256;81;28511;-80
2022/09/26 18:11:33;;;;;;;7.37;5.80;;;;;;;19.46;97.86;97989.86;4395222;80;28493;-79
2022/09/26 18:17:42;;;;;;;8.10;6.17;;;;;;;19.90;94.68;97985.05;4386102;80;28523;-85
2022/09/26 18:24:05;;;;;;;15.63;8.65;;;;;;;19.78;94.30;97974.77;4370963;79;28514;-83
2022/09/26 18:30:11;;;;;;;10.28;7.33;;;;;;;19.96;94.93;97980.28;4391746;79;28538;-80
2022/09/26 18:36:14;;;;;;;;;;;;;;;19.75;96.29;97984.95;4447020;79;28624;-81
2022/09/26 18:42:26;;;;;;;11.50;8.23;;;;;;;19.70;97.01;97991.35;4404503;79;20229;-81
2022/09/26 18:48:35;;;;;;;8.58;6.25;;;;;;;19.70;96.41;97994.08;4414385;79;28595;-80
2022/09/26 18:54:37;;;;;;;9.78;6.10;;;;;;;19.36;97.33;97997.74;4373000;79;28566;-79
2022/09/26 19:00:38;;;;;;;10.15;7.12;;;;;;;19.30;97.05;97999.02;4414564;79;28563;-82
2022/09/26 19:06:43;;;;;;;11.38;8.75;;;;;;;19.23;99.28;97996.75;4340167;80;28594;-78
2022/09/26 19:12:50;;;;;;;13.10;8.18;;;;;;;19.13;100.00;98003.02;4333196;81;28505;-79
2022/09/26 19:18:51;;;;;;;13.15;8.60;;;;;;;19.02;100.00;97997.84;4397290;79;28496;-84
2022/09/26 19:25:08;;;;;;;12.53;8.47;;;;;;;18.90;99.43;97992.97;4322092;80;28463;-81
2022/09/26 19:31:18;;;;;;;12.13;7.97;;;;;;;18.71;100.00;97986.92;4353252;80;28609;-82
2022/09/26 19:37:18;;;;;;;15.32;9.30;;;;;;;18.67;99.36;97988.87;4362095;80;28566;-80
2022/09/26 19:43:21;;;;;;;15.88;9.35;;;;;;;18.51;99.07;97983.59;4372631;80;28529;-80
2022/09/26 19:49:32;;;;;;;14.90;9.60;;;;;;;18.42;99.47;97986.23;4335912;80;28583;-79
2022/09/26 19:55:36;;;;;;;12.95;8.73;;;;;;;18.08;99.02;97984.84;4320830;80;28506;-81
2022/09/26 20:01:41;;;;;;;12.47;8.83;;;;;;;17.97;100.00;97986.97;4365763;80;28555;-82
2022/09/26 20:07:46;;;;;;;14.15;9.05;;;;;;;17.86;99.80;97997.80;4368023;80;28527;-81
2022/09/26 20:20:16;;;;;;;12.40;8.65;;;;;;;17.92;100.00;97989.25;4374584;80;28561;-80
2022/09/26 20:26:21;;;;;;;11.70;8.43;;;;;;;17.75;100.00;97996.66;4365218;80;28617;-81
2022/09/26 20:32:23;;;;;;;11.70;7.78;;;;;;;17.55;98.37;97997.89;4370175;80;28542;-81
2022/09/26 20:38:46;;;;;;;13.25;8.10;;;;;;;17.46;100.00;98005.14;4372410;80;28527;-80
2022/09/26 20:44:49;;;;;;;17.55;10.23;;;;;;;17.47;97.29;98010.28;4365131;80;28495;-80
2022/09/26 20:50:52;;;;;;;11.95;8.53;;;;;;;17.32;97.95;98011.38;4363607;80;28517;-80
2022/09/26 20:56:56;;;;;;;12.30;8.58;;;;;;;17.09;100.00;98015.34;4369377;80;28535;-80
2022/09/26 21:03:03;;;;;;;13.28;8.53;;;;;;;17.05;99.13;98012.16;4369689;80;28700;-81
2022/09/26 21:09:25;;;;;;;11.93;8.15;;;;;;;17.44;98.61;98004.64;4370461;80;28524;-79
2022/09/26 21:15:32;;;;;;;11.55;7.45;;;;;;;17.45;94.46;98002.17;4358555;80;28530;-80
2022/09/26 21:21:34;;;;;;;12.10;8.00;;;;;;;17.40;95.94;97999.00;4319536;80;28607;-80
2022/09/26 21:27:47;;;;;;;13.80;8.35;;;;;;;17.37;96.28;97993.61;4339106;82;28538;-81
2022/09/26 21:33:49;;;;;;;13.05;8.45;;;;;;;17.33;97.43;97988.54;4353755;81;28540;-79
2022/09/26 21:39:51;;;;;;;15.55;9.10;;;;;;;17.19;97.46;97989.10;4378097;80;28573;-79
2022/09/26 21:45:52;;;;;;;14.18;9.53;;;;;;;17.13;98.47;97982.96;4359479;80;28528;-80
2022/09/26 21:52:09;;;;;;;12.23;7.90;;;;;;;16.98;97.09;97978.02;4388067;79;28480;-80
2022/09/26 21:58:16;;;;;;;12.88;8.40;;;;;;;16.85;95.15;97972.02;4370284;81;28555;-80
2022/09/26 22:04:17;;;;;;;;;;;;;;;16.64;96.93;97971.02;4384543;80;28550;-80
2022/09/26 22:10:19;;;;;;;14.20;9.35;;;;;;;16.64;95.92;97968.84;4359153;81;20566;-80
2022/09/26 22:16:20;;;;;;;14.47;8.78;;;;;;;16.47;97.84;97967.51;4340442;80;28533;-80
2022/09/26 22:22:21;;;;;;;13.48;8.50;;;;;;;16.43;95.98;97961.86;4339712;81;28551;-81
2022/09/26 22:28:23;;;;;;;14.85;8.00;;;;;;;16.22;96.52;97956.51;4360210;81;28535;-81
2022/09/26 22:34:25;;;;;;;17.25;9.20;;;;;;;16.28;93.58;97943.11;4352046;81;28605;-82
2022/09/26 22:40:26;;;;;;;13.43;8.70;;;;;;;16.22;93.68;97930.19;4318680;81;28607;-83
2022/09/26 22:46:30;;;;;;;14.07;9.68;;;;;;;16.12;91.84;97924.38;4324397;81;28474;-81
2022/09/26 22:52:31;;;;;;;16.52;10.00;;;;;;;16.24;94.19;97910.91;4330984;81;28496;-80
2022/09/26 22:58:37;;;;;;;15.43;9.63;;;;;;;15.94;93.81;97902.16;4326775;81;28581;-80
2022/09/26 23:04:47;;;;;;;13.35;8.30;;;;;;;15.89;94.60;97900.30;4345099;80;28593;-80
2022/09/26 23:10:54;;;;;;;13.32;8.60;;;;;;;15.69;91.32;97904.13;4338087;80;28548;-81
2022/09/26 23:16:55;;;;;;;13.93;10.10;;;;;;;15.60;90.73;97904.78;4307721;81;28604;-80
2022/09/26 23:22:57;;;;;;;13.03;8.78;;;;;;;15.51;94.03;97900.29;4322709;81;28529;-82
2022/09/26 23:28:59;;;;;;;12.82;8.75;;;;;;;15.42;93.88;97895.55;4303902;81;28617;-81
2022/09/26 23:35:00;;;;;;;15.55;9.60;;;;;;;15.41;90.71;97898.00;4339623;81;28529;-82
2022/09/26 23:41:03;;;;;;;16.27;10.00;;;;;;;15.18;92.47;97892.30;4325911;81;28523;-79
2022/09/26 23:47:04;;;;;;;12.23;8.03;;;;;;;15.22;96.97;97886.33;4323297;81;28490;-80
2022/09/26 23:53:06;;;;;;;13.45;8.93;;;;;;;15.42;90.10;97887.95;4344987;81;28561;-78
2022/09/26 23:59:08;;;;;;;11.35;8.53;;;;;;;15.39;91.80;97887.19;4321252;81;28537;-78
